createdAt,value
2018-07-06T00:00:13.966Z,0.00
2018-07-06T00:01:14.003Z,0.00
2018-07-06T00:02:14.042Z,0.00
2018-07-06T00:03:14.080Z,0.00
2018-07-06T00:04:14.121Z,0.00
2018-07-06T00:05:14.160Z,0.00
2018-07-06T00:06:14.200Z,0.00
2018-07-06T00:07:14.246Z,0.00
2018-07-06T00:08:14.279Z,0.00
2018-07-06T00:09:14.318Z,0.00
2018-07-06T00:10:14.357Z,0.00
2018-07-06T00:11:14.396Z,0.00
2018-07-06T00:12:14.436Z,0.00
2018-07-06T00:13:14.475Z,0.00
2018-07-06T00:14:14.516Z,0.00
2018-07-06T00:15:14.555Z,0.00
2018-07-06T00:16:14.602Z,0.00
2018-07-06T00:17:14.638Z,0.00
2018-07-06T00:18:14.673Z,0.00
2018-07-06T00:19:14.710Z,0.00
2018-07-06T00:20:14.754Z,0.00
2018-07-06T00:21:14.788Z,0.00
2018-07-06T00:22:14.828Z,0.00
2018-07-06T00:23:14.868Z,0.00
2018-07-06T00:24:14.908Z,0.00
2018-07-06T00:25:14.947Z,0.00
2018-07-06T00:26:14.987Z,0.00
2018-07-06T00:27:15.025Z,0.00
2018-07-06T00:28:15.065Z,0.00
2018-07-06T00:29:15.105Z,0.00
2018-07-06T00:30:15.143Z,0.00
2018-07-06T00:31:15.182Z,0.00
2018-07-06T00:32:15.221Z,0.00
2018-07-06T00:33:15.263Z,0.00
2018-07-06T00:34:15.302Z,0.00
2018-07-06T00:35:15.340Z,0.00
2018-07-06T00:36:15.377Z,0.00
2018-07-06T00:37:15.418Z,0.00
2018-07-06T00:38:15.470Z,0.00
2018-07-06T00:39:15.497Z,0.00
2018-07-06T00:40:15.535Z,0.00
2018-07-06T00:41:15.579Z,0.00
2018-07-06T00:42:15.616Z,0.00
2018-07-06T00:43:15.654Z,0.00
2018-07-06T00:44:15.692Z,0.00
2018-07-06T00:45:15.732Z,0.00
2018-07-06T00:46:15.772Z,0.00
2018-07-06T00:47:15.813Z,0.00
2018-07-06T00:48:15.848Z,0.00
2018-07-06T00:49:15.888Z,0.00
2018-07-06T00:50:15.927Z,0.00
2018-07-06T00:51:15.965Z,0.00
2018-07-06T00:52:16.006Z,0.00
2018-07-06T00:53:16.048Z,0.00
2018-07-06T00:54:16.084Z,0.00
2018-07-06T00:55:16.126Z,0.00
2018-07-06T00:56:16.162Z,0.00
2018-07-06T00:57:16.202Z,0.00
2018-07-06T00:58:16.247Z,0.00
2018-07-06T00:59:16.279Z,0.00
2018-07-06T01:00:16.319Z,0.00
2018-07-06T01:01:16.357Z,0.00
2018-07-06T01:02:16.397Z,0.00
2018-07-06T01:03:16.438Z,0.00
2018-07-06T01:04:16.476Z,0.00
2018-07-06T01:05:16.516Z,0.00
2018-07-06T01:06:16.607Z,0.00
2018-07-06T01:07:16.592Z,0.00
2018-07-06T01:08:16.633Z,0.00
2018-07-06T01:09:16.673Z,0.00
2018-07-06T01:10:16.839Z,0.00
2018-07-06T01:11:16.750Z,0.00
2018-07-06T01:12:16.791Z,0.00
2018-07-06T01:13:16.827Z,0.00
2018-07-06T01:14:16.869Z,0.00
2018-07-06T01:15:16.905Z,0.00
2018-07-06T01:16:16.945Z,0.00
2018-07-06T01:17:16.985Z,0.00
2018-07-06T01:18:17.023Z,0.00
2018-07-06T01:19:17.061Z,0.00
2018-07-06T01:20:17.105Z,0.00
2018-07-06T01:21:17.139Z,0.00
2018-07-06T01:22:17.178Z,0.00
2018-07-06T01:23:17.216Z,0.00
2018-07-06T01:24:17.257Z,0.00
2018-07-06T01:25:17.295Z,0.00
2018-07-06T01:26:17.350Z,0.00
2018-07-06T01:27:17.373Z,0.00
2018-07-06T01:28:17.412Z,0.00
2018-07-06T01:29:17.452Z,0.00
2018-07-06T01:30:17.491Z,0.00
2018-07-06T01:31:17.530Z,0.00
2018-07-06T01:32:17.576Z,0.00
2018-07-06T01:33:17.609Z,0.00
2018-07-06T01:34:17.649Z,0.00
2018-07-06T01:35:17.686Z,0.00
2018-07-06T01:36:17.725Z,0.00
2018-07-06T01:37:17.771Z,0.00
2018-07-06T01:38:17.804Z,0.00
2018-07-06T01:39:17.843Z,0.00
2018-07-06T01:40:17.884Z,0.00
2018-07-06T01:41:17.930Z,0.00
2018-07-06T01:42:17.960Z,0.00
2018-07-06T01:43:18.000Z,0.00
2018-07-06T01:44:18.035Z,0.00
2018-07-06T01:45:18.077Z,0.00
2018-07-06T01:46:18.114Z,0.00
2018-07-06T01:47:18.154Z,0.00
2018-07-06T01:48:18.192Z,0.00
2018-07-06T01:49:18.234Z,0.00
2018-07-06T01:50:18.270Z,0.00
2018-07-06T01:51:18.307Z,0.00
2018-07-06T01:52:18.347Z,0.00
2018-07-06T01:53:18.385Z,0.00
2018-07-06T01:54:18.425Z,0.00
2018-07-06T01:55:18.473Z,0.00
2018-07-06T01:56:18.502Z,0.00
2018-07-06T01:57:18.543Z,0.00
2018-07-06T01:58:18.585Z,0.00
2018-07-06T01:59:18.618Z,0.00
2018-07-06T02:00:18.657Z,0.00
2018-07-06T02:01:18.696Z,0.00
2018-07-06T02:02:18.736Z,0.00
2018-07-06T02:03:18.774Z,0.00
2018-07-06T02:04:18.812Z,0.00
2018-07-06T02:05:18.852Z,0.00
2018-07-06T02:06:18.891Z,0.00
2018-07-06T02:07:18.932Z,0.00
2018-07-06T02:08:18.969Z,0.00
2018-07-06T02:09:19.008Z,0.00
2018-07-06T02:10:19.047Z,0.00
2018-07-06T02:11:19.085Z,0.00
2018-07-06T02:12:19.124Z,0.00
2018-07-06T02:13:19.170Z,0.00
2018-07-06T02:14:19.202Z,0.00
2018-07-06T02:15:19.241Z,0.00
2018-07-06T02:16:19.279Z,0.00
2018-07-06T02:17:19.317Z,0.00
2018-07-06T02:18:19.359Z,0.00
2018-07-06T02:19:19.393Z,0.00
2018-07-06T02:20:19.436Z,0.00
2018-07-06T02:21:19.472Z,0.00
2018-07-06T02:22:19.510Z,0.00
2018-07-06T02:23:19.547Z,0.00
2018-07-06T02:24:19.585Z,0.00
2018-07-06T02:25:19.625Z,0.00
2018-07-06T02:26:19.664Z,0.00
2018-07-06T02:27:19.703Z,0.00
2018-07-06T02:28:19.749Z,0.00
2018-07-06T02:29:19.779Z,0.00
2018-07-06T02:30:19.820Z,0.00
2018-07-06T02:31:19.860Z,0.00
2018-07-06T02:32:19.896Z,0.00
2018-07-06T02:33:19.937Z,0.00
2018-07-06T02:34:19.988Z,0.00
2018-07-06T02:35:20.012Z,0.00
2018-07-06T02:36:20.051Z,0.00
2018-07-06T02:37:20.089Z,0.00
2018-07-06T02:38:20.128Z,0.00
2018-07-06T02:39:20.166Z,0.00
2018-07-06T02:40:20.205Z,0.00
2018-07-06T02:41:20.244Z,0.00
2018-07-06T02:42:20.285Z,0.00
2018-07-06T02:43:20.322Z,0.00
2018-07-06T02:44:20.359Z,0.00
2018-07-06T02:45:20.400Z,0.00
2018-07-06T02:46:20.436Z,0.00
2018-07-06T02:47:20.478Z,0.00
2018-07-06T02:48:20.517Z,0.00
2018-07-06T02:49:20.551Z,0.00
2018-07-06T02:50:20.593Z,0.00
2018-07-06T02:51:20.628Z,0.00
2018-07-06T02:52:20.666Z,0.00
2018-07-06T02:53:20.705Z,0.00
2018-07-06T02:54:20.744Z,0.00
2018-07-06T02:55:20.783Z,0.00
2018-07-06T02:56:20.820Z,0.00
2018-07-06T02:57:20.975Z,0.00
2018-07-06T02:58:20.908Z,0.00
2018-07-06T02:59:20.936Z,0.00
2018-07-06T03:00:20.975Z,0.00
2018-07-06T03:01:21.028Z,0.00
2018-07-06T03:02:21.054Z,0.00
2018-07-06T03:03:21.090Z,5.63
2018-07-06T03:04:21.130Z,5.63
2018-07-06T03:05:21.168Z,5.63
2018-07-06T03:06:21.206Z,5.63
2018-07-06T03:07:21.244Z,5.63
2018-07-06T03:08:21.283Z,5.63
2018-07-06T03:09:21.325Z,5.63
2018-07-06T03:10:21.372Z,5.63
2018-07-06T03:11:21.408Z,5.63
2018-07-06T03:12:21.444Z,5.63
2018-07-06T03:13:21.485Z,5.63
2018-07-06T03:14:21.515Z,5.63
2018-07-06T03:15:21.560Z,5.63
2018-07-06T03:16:21.592Z,5.63
2018-07-06T03:17:21.636Z,11.25
2018-07-06T03:18:21.667Z,11.25
2018-07-06T03:19:21.705Z,11.25
2018-07-06T03:20:21.745Z,11.25
2018-07-06T03:21:21.785Z,11.25
2018-07-06T03:22:21.820Z,11.25
2018-07-06T03:23:21.857Z,11.25
2018-07-06T03:24:21.904Z,16.88
2018-07-06T03:25:21.936Z,16.88
2018-07-06T03:26:21.973Z,16.88
2018-07-06T03:27:22.011Z,16.88
2018-07-06T03:28:22.140Z,22.50
2018-07-06T03:29:22.101Z,22.50
2018-07-06T03:30:22.127Z,22.50
2018-07-06T03:31:22.166Z,22.50
2018-07-06T03:32:22.206Z,28.13
2018-07-06T03:33:22.241Z,28.13
2018-07-06T03:34:22.279Z,28.13
2018-07-06T03:35:22.319Z,28.13
2018-07-06T03:36:22.364Z,33.75
2018-07-06T03:37:22.394Z,33.75
2018-07-06T03:38:22.434Z,33.75
2018-07-06T03:39:22.471Z,33.75
2018-07-06T03:40:22.509Z,39.38
2018-07-06T03:41:22.547Z,39.38
2018-07-06T03:42:22.585Z,39.38
2018-07-06T03:43:22.623Z,45.00
2018-07-06T03:44:22.670Z,45.00
2018-07-06T03:45:22.701Z,45.00
2018-07-06T03:46:22.738Z,45.00
2018-07-06T03:47:22.777Z,50.63
2018-07-06T03:48:22.815Z,50.63
2018-07-06T03:49:22.852Z,50.63
2018-07-06T03:50:22.891Z,56.25
2018-07-06T03:51:22.929Z,56.25
2018-07-06T03:52:22.973Z,61.88
2018-07-06T03:53:23.006Z,61.88
2018-07-06T03:54:23.044Z,56.25
2018-07-06T03:55:23.082Z,61.88
2018-07-06T03:56:23.119Z,61.88
2018-07-06T03:57:23.159Z,61.88
2018-07-06T03:58:23.196Z,67.50
2018-07-06T03:59:23.232Z,67.50
2018-07-06T04:00:23.270Z,67.50
2018-07-06T04:01:23.312Z,67.50
2018-07-06T04:02:23.349Z,67.50
2018-07-06T04:03:23.385Z,73.13
2018-07-06T04:04:23.424Z,73.13
2018-07-06T04:05:23.463Z,73.13
2018-07-06T04:06:23.500Z,78.75
2018-07-06T04:07:23.538Z,78.75
2018-07-06T04:08:23.576Z,78.75
2018-07-06T04:09:23.617Z,78.75
2018-07-06T04:10:23.654Z,78.75
2018-07-06T04:11:23.694Z,78.75
2018-07-06T04:12:23.730Z,78.75
2018-07-06T04:13:23.769Z,78.75
2018-07-06T04:14:23.808Z,84.38
2018-07-06T04:15:23.844Z,84.38
2018-07-06T04:16:23.885Z,84.38
2018-07-06T04:17:23.923Z,84.38
2018-07-06T04:18:23.961Z,84.38
2018-07-06T04:19:24.005Z,84.38
2018-07-06T04:20:24.036Z,90.00
2018-07-06T04:21:24.076Z,84.38
2018-07-06T04:22:24.115Z,84.38
2018-07-06T04:23:24.152Z,84.38
2018-07-06T04:24:24.192Z,84.38
2018-07-06T04:25:24.232Z,84.38
2018-07-06T04:26:24.325Z,84.38
2018-07-06T04:27:24.305Z,84.38
2018-07-06T04:28:24.345Z,90.00
2018-07-06T04:29:24.391Z,90.00
2018-07-06T04:30:24.423Z,90.00
2018-07-06T04:31:24.461Z,90.00
2018-07-06T04:32:24.507Z,90.00
2018-07-06T04:33:24.539Z,90.00
2018-07-06T04:34:24.574Z,90.00
2018-07-06T04:35:24.613Z,90.00
2018-07-06T04:36:24.652Z,90.00
2018-07-06T04:37:24.692Z,90.00
2018-07-06T04:38:24.729Z,90.00
2018-07-06T04:39:24.776Z,90.00
2018-07-06T04:40:24.807Z,90.00
2018-07-06T04:41:24.845Z,90.00
2018-07-06T04:42:24.892Z,90.00
2018-07-06T04:43:24.925Z,95.63
2018-07-06T04:44:24.962Z,95.63
2018-07-06T04:45:25.000Z,95.63
2018-07-06T04:46:25.042Z,101.25
2018-07-06T04:47:25.077Z,101.25
2018-07-06T04:48:25.116Z,101.25
2018-07-06T04:49:25.154Z,101.25
2018-07-06T04:50:25.195Z,101.25
2018-07-06T04:51:25.236Z,101.25
2018-07-06T04:52:25.271Z,101.25
2018-07-06T04:53:25.310Z,101.25
2018-07-06T04:54:25.350Z,106.88
2018-07-06T04:55:25.397Z,106.88
2018-07-06T04:56:25.434Z,101.25
2018-07-06T04:57:25.462Z,101.25
2018-07-06T04:58:25.502Z,101.25
2018-07-06T04:59:25.558Z,101.25
2018-07-06T05:00:25.579Z,106.88
2018-07-06T05:01:25.618Z,101.25
2018-07-06T05:02:25.757Z,101.25
2018-07-06T05:03:25.695Z,106.88
2018-07-06T05:04:25.743Z,106.88
2018-07-06T05:05:25.774Z,101.25
2018-07-06T05:06:25.811Z,106.88
2018-07-06T05:07:25.901Z,118.13
2018-07-06T05:08:25.892Z,112.50
2018-07-06T05:09:25.928Z,112.50
2018-07-06T05:10:25.968Z,112.50
2018-07-06T05:11:26.005Z,112.50
2018-07-06T05:12:26.046Z,112.50
2018-07-06T05:13:26.084Z,112.50
2018-07-06T05:14:26.123Z,112.50
2018-07-06T05:15:26.172Z,112.50
2018-07-06T05:16:26.198Z,118.13
2018-07-06T05:17:26.237Z,118.13
2018-07-06T05:18:26.279Z,123.75
2018-07-06T05:19:26.318Z,123.75
2018-07-06T05:20:26.355Z,129.38
2018-07-06T05:21:26.446Z,129.38
2018-07-06T05:22:26.431Z,140.63
2018-07-06T05:23:26.468Z,140.63
2018-07-06T05:24:26.508Z,140.63
2018-07-06T05:25:26.548Z,151.88
2018-07-06T05:26:26.591Z,140.63
2018-07-06T05:27:26.624Z,140.63
2018-07-06T05:28:26.664Z,146.25
2018-07-06T05:29:26.702Z,151.88
2018-07-06T05:30:26.742Z,157.50
2018-07-06T05:31:26.779Z,157.50
2018-07-06T05:32:26.818Z,163.13
2018-07-06T05:33:26.858Z,168.75
2018-07-06T05:34:26.896Z,174.38
2018-07-06T05:35:26.935Z,180.00
2018-07-06T05:36:26.973Z,191.25
2018-07-06T05:37:27.013Z,196.88
2018-07-06T05:38:27.053Z,191.25
2018-07-06T05:39:27.091Z,191.25
2018-07-06T05:40:27.137Z,191.25
2018-07-06T05:41:27.173Z,191.25
2018-07-06T05:42:27.208Z,191.25
2018-07-06T05:43:27.249Z,196.88
2018-07-06T05:44:27.285Z,196.88
2018-07-06T05:45:27.326Z,191.25
2018-07-06T05:46:27.444Z,180.00
2018-07-06T05:47:27.403Z,174.38
2018-07-06T05:48:27.443Z,174.38
2018-07-06T05:49:27.481Z,168.75
2018-07-06T05:50:27.522Z,168.75
2018-07-06T05:51:27.561Z,157.50
2018-07-06T05:52:27.602Z,157.50
2018-07-06T05:53:27.639Z,157.50
2018-07-06T05:54:27.728Z,168.75
2018-07-06T05:55:27.726Z,174.38
2018-07-06T05:56:27.762Z,196.88
2018-07-06T05:57:27.795Z,225.00
2018-07-06T05:58:27.837Z,253.13
2018-07-06T05:59:27.874Z,258.75
2018-07-06T06:00:27.915Z,292.50
2018-07-06T06:01:28.053Z,331.88
2018-07-06T06:02:27.991Z,331.88
2018-07-06T06:03:28.043Z,331.88
2018-07-06T06:04:28.072Z,337.50
2018-07-06T06:05:28.110Z,320.63
2018-07-06T06:06:28.149Z,286.88
2018-07-06T06:07:28.189Z,247.50
2018-07-06T06:08:28.238Z,236.25
2018-07-06T06:09:28.268Z,225.00
2018-07-06T06:10:28.308Z,219.38
2018-07-06T06:11:28.347Z,241.88
2018-07-06T06:12:28.388Z,247.50
2018-07-06T06:13:28.427Z,253.13
2018-07-06T06:14:28.469Z,258.75
2018-07-06T06:15:28.657Z,253.13
2018-07-06T06:16:28.548Z,258.75
2018-07-06T06:17:28.593Z,258.75
2018-07-06T06:18:28.645Z,253.13
2018-07-06T06:19:28.669Z,247.50
2018-07-06T06:20:28.707Z,236.25
2018-07-06T06:21:28.748Z,230.63
2018-07-06T06:22:28.787Z,219.38
2018-07-06T06:23:28.828Z,208.13
2018-07-06T06:24:28.867Z,213.75
2018-07-06T06:25:28.907Z,213.75
2018-07-06T06:26:28.949Z,213.75
2018-07-06T06:27:28.987Z,219.38
2018-07-06T06:28:29.027Z,230.63
2018-07-06T06:29:29.066Z,247.50
2018-07-06T06:30:29.105Z,253.13
2018-07-06T06:31:29.147Z,253.13
2018-07-06T06:32:29.236Z,270.00
2018-07-06T06:33:29.306Z,270.00
2018-07-06T06:34:29.270Z,281.25
2018-07-06T06:35:29.305Z,298.13
2018-07-06T06:36:29.345Z,292.50
2018-07-06T06:37:29.384Z,292.50
2018-07-06T06:38:29.426Z,281.25
2018-07-06T06:39:29.506Z,270.00
2018-07-06T06:40:29.503Z,258.75
2018-07-06T06:41:29.543Z,236.25
2018-07-06T06:42:29.583Z,236.25
2018-07-06T06:43:29.622Z,225.00
2018-07-06T06:44:29.662Z,225.00
2018-07-06T06:45:29.703Z,225.00
2018-07-06T06:46:29.744Z,253.13
2018-07-06T06:47:29.806Z,258.75
2018-07-06T06:48:29.822Z,247.50
2018-07-06T06:49:29.862Z,241.88
2018-07-06T06:50:29.901Z,236.25
2018-07-06T06:51:29.957Z,236.25
2018-07-06T06:52:29.981Z,253.13
2018-07-06T06:53:30.021Z,241.88
2018-07-06T06:54:30.061Z,236.25
2018-07-06T06:55:30.100Z,241.88
2018-07-06T06:56:30.143Z,258.75
2018-07-06T06:57:30.180Z,270.00
2018-07-06T06:58:30.218Z,275.63
2018-07-06T06:59:30.258Z,298.13
2018-07-06T07:00:30.298Z,303.75
2018-07-06T07:01:30.338Z,298.13
2018-07-06T07:02:30.378Z,315.00
2018-07-06T07:03:30.416Z,326.25
2018-07-06T07:04:30.464Z,326.25
2018-07-06T07:05:30.497Z,348.75
2018-07-06T07:06:30.537Z,331.88
2018-07-06T07:07:30.638Z,309.38
2018-07-06T07:08:30.617Z,303.75
2018-07-06T07:09:30.656Z,303.75
2018-07-06T07:10:30.698Z,326.25
2018-07-06T07:11:30.736Z,337.50
2018-07-06T07:12:30.776Z,354.38
2018-07-06T07:13:30.817Z,354.38
2018-07-06T07:14:30.860Z,365.63
2018-07-06T07:15:30.896Z,371.25
2018-07-06T07:16:30.935Z,348.75
2018-07-06T07:17:30.976Z,326.25
2018-07-06T07:18:31.015Z,326.25
2018-07-06T07:19:31.056Z,354.38
2018-07-06T07:20:31.096Z,348.75
2018-07-06T07:21:31.140Z,382.50
2018-07-06T07:22:31.178Z,410.63
2018-07-06T07:23:31.217Z,382.50
2018-07-06T07:24:31.261Z,365.63
2018-07-06T07:25:31.299Z,371.25
2018-07-06T07:26:31.338Z,360.00
2018-07-06T07:27:31.378Z,354.38
2018-07-06T07:28:31.418Z,354.38
2018-07-06T07:29:31.461Z,348.75
2018-07-06T07:30:31.499Z,360.00
2018-07-06T07:31:31.539Z,354.38
2018-07-06T07:32:31.579Z,348.75
2018-07-06T07:33:31.621Z,343.13
2018-07-06T07:34:31.669Z,337.50
2018-07-06T07:35:31.700Z,365.63
2018-07-06T07:36:31.742Z,354.38
2018-07-06T07:37:31.783Z,326.25
2018-07-06T07:38:31.823Z,286.88
2018-07-06T07:39:31.863Z,281.25
2018-07-06T07:40:31.904Z,298.13
2018-07-06T07:41:31.944Z,309.38
2018-07-06T07:42:31.985Z,298.13
2018-07-06T07:43:32.029Z,264.38
2018-07-06T07:44:32.066Z,230.63
2018-07-06T07:45:32.108Z,213.75
2018-07-06T07:46:32.240Z,202.50
2018-07-06T07:47:32.187Z,208.13
2018-07-06T07:48:32.226Z,213.75
2018-07-06T07:49:32.274Z,208.13
2018-07-06T07:50:32.311Z,191.25
2018-07-06T07:51:32.351Z,185.63
2018-07-06T07:52:32.401Z,180.00
2018-07-06T07:53:32.440Z,180.00
2018-07-06T07:54:32.493Z,174.38
2018-07-06T07:55:32.511Z,174.38
2018-07-06T07:56:32.552Z,168.75
2018-07-06T07:57:32.592Z,174.38
2018-07-06T07:58:32.637Z,168.75
2018-07-06T07:59:32.680Z,168.75
2018-07-06T08:00:32.848Z,168.75
2018-07-06T08:01:32.759Z,174.38
2018-07-06T08:02:32.793Z,180.00
2018-07-06T08:03:32.833Z,185.63
2018-07-06T08:04:32.873Z,185.63
2018-07-06T08:05:32.914Z,185.63
2018-07-06T08:06:33.007Z,185.63
2018-07-06T08:07:32.994Z,180.00
2018-07-06T08:08:33.035Z,185.63
2018-07-06T08:09:33.074Z,191.25
2018-07-06T08:10:33.115Z,185.63
2018-07-06T08:11:35.446Z,180.00
2018-07-06T08:12:33.195Z,185.63
2018-07-06T08:13:33.240Z,180.00
2018-07-06T08:14:33.347Z,180.00
2018-07-06T08:15:33.323Z,174.38
2018-07-06T08:16:33.358Z,168.75
2018-07-06T08:17:33.397Z,168.75
2018-07-06T08:18:33.436Z,168.75
2018-07-06T08:19:33.476Z,168.75
2018-07-06T08:20:33.517Z,174.38
2018-07-06T08:21:33.559Z,168.75
2018-07-06T08:22:33.597Z,168.75
2018-07-06T08:23:33.640Z,168.75
2018-07-06T08:24:33.677Z,168.75
2018-07-06T08:25:33.772Z,168.75
2018-07-06T08:26:33.758Z,163.13
2018-07-06T08:27:33.798Z,163.13
2018-07-06T08:28:33.839Z,163.13
2018-07-06T08:29:33.878Z,163.13
2018-07-06T08:30:33.918Z,163.13
2018-07-06T08:31:34.067Z,168.75
2018-07-06T08:32:33.998Z,163.13
2018-07-06T08:33:34.041Z,163.13
2018-07-06T08:34:34.078Z,157.50
2018-07-06T08:35:34.118Z,163.13
2018-07-06T08:36:34.170Z,163.13
2018-07-06T08:37:34.198Z,163.13
2018-07-06T08:38:34.240Z,163.13
2018-07-06T08:39:34.329Z,163.13
2018-07-06T08:40:34.319Z,163.13
2018-07-06T08:41:34.359Z,163.13
2018-07-06T08:42:34.402Z,163.13
2018-07-06T08:43:34.439Z,163.13
2018-07-06T08:44:34.478Z,157.50
2018-07-06T08:45:34.522Z,157.50
2018-07-06T08:46:34.560Z,163.13
2018-07-06T08:47:34.606Z,151.88
2018-07-06T08:48:34.640Z,157.50
2018-07-06T08:49:34.683Z,163.13
2018-07-06T08:50:34.725Z,168.75
2018-07-06T08:51:34.763Z,168.75
2018-07-06T08:52:34.804Z,168.75
2018-07-06T08:53:34.845Z,168.75
2018-07-06T08:54:34.882Z,168.75
2018-07-06T08:55:34.922Z,168.75
2018-07-06T08:56:34.962Z,174.38
2018-07-06T08:57:35.004Z,185.63
2018-07-06T08:58:35.047Z,196.88
2018-07-06T08:59:35.084Z,208.13
2018-07-06T09:00:35.127Z,208.13
2018-07-06T09:01:35.165Z,225.00
2018-07-06T09:02:35.205Z,208.13
2018-07-06T09:03:35.244Z,202.50
2018-07-06T09:04:35.400Z,196.88
2018-07-06T09:05:35.377Z,196.88
2018-07-06T09:06:35.365Z,185.63
2018-07-06T09:07:35.424Z,185.63
2018-07-06T09:08:35.450Z,180.00
2018-07-06T09:09:35.488Z,174.38
2018-07-06T09:10:35.528Z,180.00
2018-07-06T09:11:35.570Z,191.25
2018-07-06T09:12:35.611Z,191.25
2018-07-06T09:13:35.651Z,185.63
2018-07-06T09:14:35.693Z,185.63
2018-07-06T09:15:35.739Z,180.00
2018-07-06T09:16:35.772Z,185.63
2018-07-06T09:17:35.811Z,185.63
2018-07-06T09:18:35.853Z,191.25
2018-07-06T09:19:36.059Z,196.88
2018-07-06T09:20:35.944Z,196.88
2018-07-06T09:21:35.975Z,202.50
2018-07-06T09:22:36.025Z,191.25
2018-07-06T09:23:36.061Z,191.25
2018-07-06T09:24:36.100Z,196.88
2018-07-06T09:25:36.228Z,202.50
2018-07-06T09:26:36.179Z,225.00
2018-07-06T09:27:36.227Z,230.63
2018-07-06T09:28:36.257Z,236.25
2018-07-06T09:29:36.299Z,230.63
2018-07-06T09:30:36.338Z,230.63
2018-07-06T09:31:36.381Z,230.63
2018-07-06T09:32:36.421Z,219.38
2018-07-06T09:33:36.463Z,225.00
2018-07-06T09:34:36.503Z,230.63
2018-07-06T09:35:36.547Z,236.25
2018-07-06T09:36:36.585Z,230.63
2018-07-06T09:37:36.629Z,236.25
2018-07-06T09:38:36.668Z,253.13
2018-07-06T09:39:36.708Z,264.38
2018-07-06T09:40:36.748Z,270.00
2018-07-06T09:41:36.788Z,275.63
2018-07-06T09:42:36.834Z,303.75
2018-07-06T09:43:36.870Z,354.38
2018-07-06T09:44:36.912Z,337.50
2018-07-06T09:45:36.954Z,331.88
2018-07-06T09:46:36.999Z,309.38
2018-07-06T09:47:37.035Z,275.63
2018-07-06T09:48:37.077Z,258.75
2018-07-06T09:49:37.116Z,258.75
2018-07-06T09:50:37.158Z,258.75
2018-07-06T09:51:37.199Z,253.13
2018-07-06T09:52:37.238Z,270.00
2018-07-06T09:53:37.280Z,275.63
2018-07-06T09:54:37.324Z,270.00
2018-07-06T09:55:37.367Z,275.63
2018-07-06T09:56:37.404Z,281.25
2018-07-06T09:57:37.445Z,253.13
2018-07-06T09:58:37.500Z,213.75
2018-07-06T09:59:37.527Z,196.88
2018-07-06T10:00:37.567Z,191.25
2018-07-06T10:01:37.618Z,191.25
2018-07-06T10:02:37.665Z,196.88
2018-07-06T10:03:37.691Z,196.88
2018-07-06T10:04:37.733Z,202.50
2018-07-06T10:05:37.806Z,196.88
2018-07-06T10:06:37.814Z,196.88
2018-07-06T10:07:37.854Z,196.88
2018-07-06T10:08:37.895Z,196.88
2018-07-06T10:09:37.935Z,196.88
2018-07-06T10:10:37.978Z,196.88
2018-07-06T10:11:38.022Z,196.88
2018-07-06T10:12:38.160Z,196.88
2018-07-06T10:13:38.099Z,202.50
2018-07-06T10:14:38.141Z,202.50
2018-07-06T10:15:38.180Z,202.50
2018-07-06T10:16:38.223Z,196.88
2018-07-06T10:17:38.264Z,202.50
2018-07-06T10:18:38.327Z,196.88
2018-07-06T10:19:38.415Z,191.25
2018-07-06T10:20:38.387Z,191.25
2018-07-06T10:21:38.433Z,185.63
2018-07-06T10:22:38.478Z,191.25
2018-07-06T10:23:38.509Z,191.25
2018-07-06T10:24:38.548Z,191.25
2018-07-06T10:25:38.640Z,191.25
2018-07-06T10:26:38.632Z,191.25
2018-07-06T10:27:38.670Z,191.25
2018-07-06T10:28:38.712Z,191.25
2018-07-06T10:29:38.752Z,191.25
2018-07-06T10:30:38.799Z,191.25
2018-07-06T10:31:38.835Z,191.25
2018-07-06T10:32:38.878Z,202.50
2018-07-06T10:33:38.988Z,202.50
2018-07-06T10:34:38.956Z,202.50
2018-07-06T10:35:38.997Z,196.88
2018-07-06T10:36:39.040Z,202.50
2018-07-06T10:37:39.083Z,208.13
2018-07-06T10:38:39.120Z,213.75
2018-07-06T10:39:39.411Z,219.38
2018-07-06T10:40:39.202Z,236.25
2018-07-06T10:41:39.252Z,264.38
2018-07-06T10:42:39.285Z,286.88
2018-07-06T10:43:39.324Z,315.00
2018-07-06T10:44:39.363Z,320.63
2018-07-06T10:45:39.406Z,337.50
2018-07-06T10:46:39.505Z,320.63
2018-07-06T10:47:39.488Z,343.13
2018-07-06T10:48:39.536Z,320.63
2018-07-06T10:49:39.571Z,298.13
2018-07-06T10:50:39.613Z,298.13
2018-07-06T10:51:39.651Z,320.63
2018-07-06T10:52:39.694Z,286.88
2018-07-06T10:53:39.737Z,264.38
2018-07-06T10:54:39.789Z,292.50
2018-07-06T10:55:39.823Z,337.50
2018-07-06T10:56:39.857Z,343.13
2018-07-06T10:57:39.899Z,337.50
2018-07-06T10:58:39.944Z,326.25
2018-07-06T10:59:39.983Z,371.25
2018-07-06T11:00:40.024Z,433.13
2018-07-06T11:01:40.066Z,455.63
2018-07-06T11:02:40.105Z,416.25
2018-07-06T11:03:40.190Z,315.00
2018-07-06T11:04:40.190Z,213.75
2018-07-06T11:05:40.229Z,202.50
2018-07-06T11:06:40.271Z,236.25
2018-07-06T11:07:40.314Z,275.63
2018-07-06T11:08:40.355Z,326.25
2018-07-06T11:09:40.396Z,343.13
2018-07-06T11:10:40.436Z,399.38
2018-07-06T11:11:40.527Z,382.50
2018-07-06T11:12:40.525Z,393.75
2018-07-06T11:13:40.562Z,331.88
2018-07-06T11:14:40.610Z,286.88
2018-07-06T11:15:40.646Z,258.75
2018-07-06T11:16:40.693Z,247.50
2018-07-06T11:17:40.736Z,270.00
2018-07-06T11:18:40.773Z,286.88
2018-07-06T11:19:40.815Z,326.25
2018-07-06T11:20:40.860Z,320.63
2018-07-06T11:21:40.897Z,320.63
2018-07-06T11:22:40.939Z,343.13
2018-07-06T11:23:40.987Z,320.63
2018-07-06T11:24:41.022Z,275.63
2018-07-06T11:25:41.065Z,270.00
2018-07-06T11:26:41.103Z,326.25
2018-07-06T11:27:41.153Z,343.13
2018-07-06T11:28:41.191Z,298.13
2018-07-06T11:29:41.229Z,236.25
2018-07-06T11:30:41.270Z,196.88
2018-07-06T11:31:41.313Z,208.13
2018-07-06T11:32:41.360Z,236.25
2018-07-06T11:33:41.395Z,258.75
2018-07-06T11:34:41.438Z,264.38
2018-07-06T11:35:41.479Z,219.38
2018-07-06T11:36:41.531Z,202.50
2018-07-06T11:37:41.562Z,202.50
2018-07-06T11:38:41.605Z,213.75
2018-07-06T11:39:41.646Z,202.50
2018-07-06T11:40:41.687Z,202.50
2018-07-06T11:41:41.728Z,208.13
2018-07-06T11:42:41.772Z,208.13
2018-07-06T11:43:41.812Z,202.50
2018-07-06T11:44:41.853Z,196.88
2018-07-06T11:45:41.902Z,202.50
2018-07-06T11:46:41.938Z,196.88
2018-07-06T11:47:41.982Z,196.88
2018-07-06T11:48:42.023Z,196.88
2018-07-06T11:49:42.062Z,196.88
2018-07-06T11:50:42.103Z,196.88
2018-07-06T11:51:42.148Z,196.88
2018-07-06T11:52:42.187Z,202.50
2018-07-06T11:53:42.231Z,208.13
2018-07-06T11:54:42.268Z,208.13
2018-07-06T11:55:42.310Z,196.88
2018-07-06T11:56:42.351Z,196.88
2018-07-06T11:57:42.396Z,202.50
2018-07-06T11:58:42.442Z,219.38
2018-07-06T11:59:42.474Z,225.00
2018-07-06T12:00:42.516Z,208.13
2018-07-06T12:01:42.609Z,202.50
2018-07-06T12:02:42.601Z,196.88
2018-07-06T12:03:42.641Z,202.50
2018-07-06T12:04:42.683Z,213.75
2018-07-06T12:05:42.725Z,219.38
2018-07-06T12:06:42.765Z,191.25
2018-07-06T12:07:42.808Z,191.25
2018-07-06T12:08:42.848Z,196.88
2018-07-06T12:09:42.898Z,196.88
2018-07-06T12:10:42.933Z,202.50
2018-07-06T12:11:42.976Z,202.50
2018-07-06T12:12:43.013Z,208.13
2018-07-06T12:13:43.057Z,213.75
2018-07-06T12:14:43.099Z,208.13
2018-07-06T12:15:43.143Z,196.88
2018-07-06T12:16:43.181Z,191.25
2018-07-06T12:17:43.221Z,180.00
2018-07-06T12:18:43.263Z,196.88
2018-07-06T12:19:43.308Z,196.88
2018-07-06T12:20:43.345Z,202.50
2018-07-06T12:21:43.387Z,208.13
2018-07-06T12:22:43.431Z,208.13
2018-07-06T12:23:43.470Z,208.13
2018-07-06T12:24:43.562Z,213.75
2018-07-06T12:25:43.553Z,241.88
2018-07-06T12:26:43.595Z,230.63
2018-07-06T12:27:43.661Z,213.75
2018-07-06T12:28:43.679Z,196.88
2018-07-06T12:29:43.724Z,202.50
2018-07-06T12:30:43.762Z,208.13
2018-07-06T12:31:43.802Z,219.38
2018-07-06T12:32:43.843Z,253.13
2018-07-06T12:33:43.896Z,315.00
2018-07-06T12:34:43.927Z,371.25
2018-07-06T12:35:43.969Z,331.88
2018-07-06T12:36:44.025Z,292.50
2018-07-06T12:37:44.052Z,258.75
2018-07-06T12:38:44.101Z,230.63
2018-07-06T12:39:44.135Z,213.75
2018-07-06T12:40:44.176Z,208.13
2018-07-06T12:41:44.222Z,219.38
2018-07-06T12:42:44.262Z,196.88
2018-07-06T12:43:44.304Z,202.50